DucheSS Of Scandinavia — OUZI2 — position and weather

sailwx.info

Track history (hours):
 
Tides and Currents Weather Stations Pressure Air Temp Water Temp Dewpoint Dewpoint Depression Visibility Wind Speed Wind Dir Waves Ship Positions

DucheSS Of Scandinavia

Operator: DFDS A/S

Last reported at 2014-Aug-21 13:32 UTC. Time now 2014-Aug-21 14:06 UTC.
Position N 58°56' E 011°10'.

Length 134 m; draft 5.2 m.

Type: Passenger vessel. MMSI: 219002929.

Date/timePositionNaut miles runAvg speedWind from/ knotsBaromVisibWave heightAir tempDewpointWater temp
2014-Aug-21 13:32N 58°56' E 011°10'1313.2
2014-Aug-21 12:33N 59°02' E 010°47'1615.5
2014-Aug-21 11:33N 59°01' E 010°17'6 6.5
2014-Aug-21 10:33N 59°08' E 010°14'7 6.7
2014-Aug-21 09:33N 59°01' E 010°19'1615.7
2014-Aug-21 08:33N 59°02' E 010°49'1212.0
2014-Aug-21 07:33N 58°56' E 011°10'8 8.5
2014-Aug-21 06:33N 59°00' E 010°56'1615.8
2014-Aug-21 05:33N 59°01' E 010°26'9 9.3
2014-Aug-21 04:33N 59°08' E 010°14'1 1.4
2014-Aug-21 03:32N 59°06' E 010°14'0 0.0
2014-Aug-21 02:32N 59°06' E 010°14'0 0.0
2014-Aug-21 01:33N 59°06' E 010°14'0 0.0
2014-Aug-21 00:30N 59°06' E 010°14'0 0.0
2014-Aug-20 23:28N 59°06' E 010°14'0 0.0
2014-Aug-20 22:23N 59°06' E 010°14'0 0.0
2014-Aug-20 21:29N 59°06' E 010°14'0 0.0
2014-Aug-20 20:24N 59°06' E 010°14'0 0.0
2014-Aug-20 19:25N 59°06' E 010°14'0 0.0
2014-Aug-20 18:20N 59°06' E 010°14'0 0.1
2014-Aug-20 17:29N 59°06' E 010°14'1 1.1
2014-Aug-20 16:33N 59°07' E 010°14'1110.7
2014-Aug-20 15:33N 59°01' E 010°30'1514.9
2014-Aug-20 14:33N 58°60' E 010°58'7 7.0
2014-Aug-20 13:33N 58°56' E 011°10'1312.9
2014-Aug-20 12:33N 59°01' E 010°48'1616.2
2014-Aug-20 11:33N 59°02' E 010°16'6 6.0
2014-Aug-20 10:33N 59°08' E 010°14'7 6.5
2014-Aug-20 09:33N 59°01' E 010°18'1615.7
2014-Aug-20 08:33N 59°01' E 010°49'1212.4
2014-Aug-20 07:34N 58°56' E 011°10'9 8.6
2014-Aug-20 06:33N 59°00' E 010°56'1616.2
2014-Aug-20 05:33N 59°01' E 010°24'9 8.8
2014-Aug-20 04:33N 59°08' E 010°14'1 1.4
2014-Aug-20 03:33N 59°06' E 010°14'0 0.0
2014-Aug-20 02:20N 59°06' E 010°14'0 0.0
2014-Aug-20 01:32N 59°06' E 010°14'0 0.0
2014-Aug-19 23:25N 59°06' E 010°14'0 0.0
2014-Aug-19 22:28N 59°06' E 010°14'0 0.0
2014-Aug-19 21:32N 59°06' E 010°14'0 0.0
2014-Aug-19 20:33N 59°06' E 010°14'0 0.0
2014-Aug-19 19:10N 59°06' E 010°14'0 0.0
2014-Aug-19 18:25N 59°06' E 010°14'0 0.0
2014-Aug-19 17:31N 59°06' E 010°14'1 0.9
2014-Aug-19 16:30N 59°07' E 010°14'1010.4
2014-Aug-19 15:33N 59°01' E 010°28'1515.3
2014-Aug-19 14:33N 58°60' E 010°58'7 6.3
2014-Aug-19 13:25N 58°56' E 011°09'1315.2
2014-Aug-19 12:33N 59°02' E 010°47'1615.5
2014-Aug-19 11:33N 59°02' E 010°16'6 6.1
2014-Aug-19 10:33N 59°08' E 010°14'7 6.7
2014-Aug-19 09:33N 59°01' E 010°19'1515.3
2014-Aug-19 08:34N 59°02' E 010°48'1312.3
2014-Aug-19 07:33N 58°56' E 011°10'9 9.2
2014-Aug-19 06:33N 59°00' E 010°55'1616.5
2014-Aug-19 05:33N 59°01' E 010°23'8 8.2
2014-Aug-19 04:33N 59°08' E 010°14'1 1.4
2014-Aug-19 03:33N 59°06' E 010°14'0 0.0
2014-Aug-19 02:33N 59°06' E 010°14'0 0.0
2014-Aug-19 01:25N 59°06' E 010°14'0 0.0
2014-Aug-19 00:32N 59°06' E 010°14'0 0.0
2014-Aug-18 23:29N 59°06' E 010°14'0 0.0
2014-Aug-18 22:24N 59°06' E 010°14'0 0.0
2014-Aug-18 21:28N 59°06' E 010°14'0 0.0
2014-Aug-18 18:30N 59°06' E 010°14'0 0.0
2014-Aug-18 17:33N 59°06' E 010°14'1 1.4
2014-Aug-18 16:33N 59°08' E 010°14'10 9.6
2014-Aug-18 15:33N 59°01' E 010°27'1515.4
2014-Aug-18 14:33N 59°00' E 010°57'8 8.1
2014-Aug-18 13:33N 58°56' E 011°10'1211.9
2014-Aug-18 12:33N 59°01' E 010°50'1716.5
2014-Aug-18 11:33N 59°01' E 010°17'6 6.5
2014-Aug-18 10:33N 59°08' E 010°14'7 6.7
2014-Aug-18 09:33N 59°01' E 010°19'1515.0
2014-Aug-18 08:34N 59°02' E 010°48'1312.6
2014-Aug-18 07:33N 58°56' E 011°10'8 8.3
2014-Aug-18 06:33N 59°00' E 010°56'1616.1
2014-Aug-18 05:33N 59°01' E 010°25'9 9.1
2014-Aug-18 04:33N 59°08' E 010°14'1 1.4
2014-Aug-18 03:33N 59°06' E 010°14'0 0.0
2014-Aug-18 02:33N 59°06' E 010°14'0 0.0
2014-Aug-18 01:33N 59°06' E 010°14'0 0.0
2014-Aug-18 00:25N 59°06' E 010°14'0 0.0
2014-Aug-17 18:29N 59°06' E 010°14'1 1.5
2014-Aug-17 17:32N 59°08' E 010°14'4 4.4
2014-Aug-17 16:34N 59°03' E 010°15'1413.9
2014-Aug-17 15:33N 59°01' E 010°42'1514.7
2014-Aug-17 14:32N 58°56' E 011°09'1 0.8
2014-Aug-17 13:33N 58°56' E 011°10'1212.2
2014-Aug-17 12:33N 59°01' E 010°49'1716.5
2014-Aug-17 11:33N 59°02' E 010°17'6 6.3
2014-Aug-17 10:33N 59°08' E 010°14'7 6.7
2014-Aug-17 09:33N 59°01' E 010°19'1615.5
2014-Aug-17 08:33N 59°02' E 010°49'1212.4
2014-Aug-17 07:34N 58°56' E 011°10'9 8.6
2014-Aug-17 06:33N 59°00' E 010°56'1616.4
2014-Aug-17 05:33N 59°01' E 010°24'9 8.6
2014-Aug-17 04:33N 59°08' E 010°14'1 1.4
2014-Aug-17 03:33N 59°06' E 010°14'0 0.0
2014-Aug-17 02:32N 59°06' E 010°14'0 0.0
2014-Aug-17 01:33N 59°06' E 010°14'0 0.0
2014-Aug-17 00:31N 59°06' E 010°14'0 0.0
2014-Aug-16 23:31N 59°06' E 010°14'0 0.0
2014-Aug-16 22:32N 59°06' E 010°14'0 0.0
2014-Aug-16 21:30N 59°06' E 010°14'0 0.0
2014-Aug-16 20:33N 59°06' E 010°14'0 0.0
2014-Aug-16 19:31N 59°06' E 010°14'0 0.0
2014-Aug-16 18:32N 59°06' E 010°14'1 1.3
2014-Aug-16 17:33N 59°07' E 010°14'3 3.2
2014-Aug-16 16:33N 59°04' E 010°15'1413.9
2014-Aug-16 15:33N 59°01' E 010°41'1515.1
2014-Aug-16 14:33N 58°56' E 011°09'1 0.7
2014-Aug-16 13:33N 58°56' E 011°10'1212.4
2014-Aug-16 12:33N 59°01' E 010°49'1616.4
2014-Aug-16 11:33N 59°01' E 010°17'6 6.3
2014-Aug-16 10:33N 59°08' E 010°14'5 4.9
2014-Aug-16 09:33N 59°03' E 010°15'1716.6
2014-Aug-16 08:33N 59°02' E 010°47'1313.1
2014-Aug-16 07:33N 58°56' E 011°10'9 9.5
2014-Aug-16 06:34N 59°01' E 010°54'1616.2
2014-Aug-16 05:33N 59°01' E 010°23'8 8.1
2014-Aug-16 04:33N 59°08' E 010°14'1 1.4
2014-Aug-16 03:33N 59°06' E 010°14'0 0.1
2014-Aug-16 02:33N 59°06' E 010°14'0 0.0
2014-Aug-16 01:33N 59°06' E 010°14'0 0.0
2014-Aug-16 00:33N 59°06' E 010°14'0 0.0
2014-Aug-15 23:33N 59°06' E 010°14'0 0.0
2014-Aug-15 22:32N 59°06' E 010°14'0 0.0
2014-Aug-15 21:33N 59°06' E 010°14'0 0.0
2014-Aug-15 20:33N 59°06' E 010°14'0 0.0
2014-Aug-15 19:32N 59°06' E 010°14'0 0.0
2014-Aug-15 18:33N 59°06' E 010°14'1 1.2
2014-Aug-15 17:33N 59°07' E 010°14'2 1.8
2014-Aug-15 16:33N 59°06' E 010°14'1414.4
2014-Aug-15 15:33N 59°01' E 010°41'1515.3
2014-Aug-15 14:33N 58°56' E 011°09'1 0.7
2014-Aug-15 13:33N 58°56' E 011°10'1413.9
2014-Aug-15 12:33N 59°02' E 010°45'1615.6
2014-Aug-15 11:33N 59°03' E 010°15'5 5.0
2014-Aug-15 10:33N 59°08' E 010°14'6 6.2
2014-Aug-15 09:33N 59°02' E 010°16'1717.2
2014-Aug-15 08:33N 59°01' E 010°50'1211.8
2014-Aug-15 07:33N 58°56' E 011°10'10 9.8
2014-Aug-15 06:33N 59°01' E 010°53'1616.5
2014-Aug-15 05:33N 59°01' E 010°22'8 7.8
2014-Aug-15 04:33N 59°08' E 010°14'1 1.4
2014-Aug-15 03:33N 59°06' E 010°14'0 0.0
2014-Aug-15 02:33N 59°06' E 010°14'0 0.0
2014-Aug-15 01:33N 59°06' E 010°14'0 0.0
2014-Aug-15 00:33N 59°06' E 010°14'0 0.0
2014-Aug-14 23:33N 59°06' E 010°14'0 0.0
2014-Aug-14 22:33N 59°06' E 010°14'0 0.0
2014-Aug-14 21:33N 59°06' E 010°14'0 0.0
2014-Aug-14 20:33N 59°06' E 010°14'0 0.0
2014-Aug-14 19:33N 59°06' E 010°14'0 0.0
2014-Aug-14 18:33N 59°06' E 010°14'0 0.1
2014-Aug-14 17:32N 59°06' E 010°14'1 0.5
2014-Aug-14 16:33N 59°06' E 010°14'1413.5
2014-Aug-14 15:33N 59°01' E 010°39'1615.9
2014-Aug-14 14:32N 58°56' E 011°09'1 0.7
2014-Aug-14 13:33N 58°56' E 011°10'1313.4
2014-Aug-14 12:33N 59°02' E 010°46'1615.9
2014-Aug-14 11:33N 59°02' E 010°15'6 5.5
2014-Aug-14 10:33N 59°08' E 010°14'6 6.2
2014-Aug-14 09:33N 59°02' E 010°17'1717.2
2014-Aug-14 08:33N 59°01' E 010°50'1211.5
2014-Aug-14 07:33N 58°56' E 011°10'1010.1
2014-Aug-14 06:33N 59°01' E 010°53'1615.7
2014-Aug-14 05:33N 59°01' E 010°23'8 8.4
2014-Aug-14 04:33N 59°08' E 010°14'1 1.4
2014-Aug-14 03:33N 59°06' E 010°14'0 0.0
2014-Aug-14 02:33N 59°06' E 010°14'0 0.0
2014-Aug-14 01:33N 59°06' E 010°14'0 0.0
2014-Aug-14 00:33N 59°06' E 010°14'0 0.0
2014-Aug-13 23:33N 59°06' E 010°14'0 0.0
2014-Aug-13 22:33N 59°06' E 010°14'0 0.0
2014-Aug-13 21:33N 59°06' E 010°14'0 0.0
2014-Aug-13 20:33N 59°06' E 010°14'0 0.0
2014-Aug-13 19:33N 59°06' E 010°14'0 0.0
2014-Aug-13 18:33N 59°06' E 010°14'1 1.1
2014-Aug-13 17:26N 59°07' E 010°14'1 1.5
2014-Aug-13 16:33N 59°06' E 010°14'1313.2
2014-Aug-13 15:33N 59°01' E 010°38'1615.8
2014-Aug-13 14:33N 58°56' E 011°07'2 1.2
2014-Aug-13 13:15N 58°57' E 011°04'1115.8
2014-Aug-13 12:33N 59°02' E 010°45'1515.4
2014-Aug-13 11:33N 59°02' E 010°15'5 5.4
2014-Aug-13 10:33N 59°08' E 010°14'6 5.7
2014-Aug-13 09:33N 59°02' E 010°16'1716.5
2014-Aug-13 08:33N 59°02' E 010°48'1313.0
2014-Aug-13 07:33N 58°56' E 011°10'9 8.6
2014-Aug-13 06:33N 59°00' E 010°56'1615.7
2014-Aug-13 05:34N 59°01' E 010°25'9 9.1
2014-Aug-13 04:33N 59°08' E 010°14'1 1.4
2014-Aug-13 03:33N 59°06' E 010°14'0 0.1
2014-Aug-13 02:33N 59°06' E 010°14'0 0.0
2014-Aug-13 01:30N 59°06' E 010°14'0 0.0
2014-Aug-13 00:33N 59°06' E 010°14'0 0.0
2014-Aug-12 23:33N 59°06' E 010°14'0 0.0
2014-Aug-12 22:33N 59°06' E 010°14'0 0.0
2014-Aug-12 21:33N 59°06' E 010°14'0 0.0
2014-Aug-12 20:33N 59°06' E 010°14'0 0.0
2014-Aug-12 19:33N 59°06' E 010°14'0 0.0
2014-Aug-12 18:33N 59°06' E 010°14'0 0.3
2014-Aug-12 17:33N 59°06' E 010°14'1 1.1
2014-Aug-12 16:33N 59°05' E 010°14'1313.3
2014-Aug-12 15:33N 59°01' E 010°39'1615.4
2014-Aug-12 14:30N 58°56' E 011°09'1 0.7
2014-Aug-12 13:32N 58°56' E 011°10'1312.8
2014-Aug-12 12:33N 59°02' E 010°48'1615.5
2014-Aug-12 11:33N 59°01' E 010°18'5 0.5
2014-Aug-12 00:33N 59°06' E 010°14'0 0.0
2014-Aug-11 23:33N 59°06' E 010°14'0 0.0
2014-Aug-11 22:33N 59°06' E 010°14'0 0.0
2014-Aug-11 21:33N 59°06' E 010°14'0 0.0
2014-Aug-11 20:33N 59°06' E 010°14'0 0.0
2014-Aug-11 19:33N 59°06' E 010°14'0 0.0
2014-Aug-11 18:33N 59°06' E 010°14'1 1.4
2014-Aug-11 17:33N 59°08' E 010°14'6 6.3
2014-Aug-11 16:33N 59°01' E 010°17'1312.8
2014-Aug-11 15:33N 59°01' E 010°42'1514.5
2014-Aug-11 14:31N 58°56' E 011°09'  
Track history (hours):
 
Tides and Currents Weather Stations Pressure Air Temp Water Temp Dewpoint Dewpoint Depression Visibility Wind Speed Wind Dir Waves Ship Positions

DucheSS Of Scandinavia

Operator: DFDS A/S

Last reported at 2014-Aug-21 13:32 UTC. Time now 2014-Aug-21 14:06 UTC.
Position N 58°56' E 011°10'.

Length 134 m; draft 5.2 m.

Type: Passenger vessel. MMSI: 219002929.

Date/timePositionNaut miles runAvg speedWind from/ knotsBaromVisibWave heightAir tempDewpointWater temp
2014-Aug-21 13:32N 58°56' E 011°10'1313.2
2014-Aug-21 12:33N 59°02' E 010°47'1615.5
2014-Aug-21 11:33N 59°01' E 010°17'6 6.5
2014-Aug-21 10:33N 59°08' E 010°14'7 6.7
2014-Aug-21 09:33N 59°01' E 010°19'1615.7
2014-Aug-21 08:33N 59°02' E 010°49'1212.0
2014-Aug-21 07:33N 58°56' E 011°10'8 8.5
2014-Aug-21 06:33N 59°00' E 010°56'1615.8
2014-Aug-21 05:33N 59°01' E 010°26'9 9.3
2014-Aug-21 04:33N 59°08' E 010°14'1 1.4
2014-Aug-21 03:32N 59°06' E 010°14'0 0.0
2014-Aug-21 02:32N 59°06' E 010°14'0 0.0
2014-Aug-21 01:33N 59°06' E 010°14'0 0.0
2014-Aug-21 00:30N 59°06' E 010°14'0 0.0
2014-Aug-20 23:28N 59°06' E 010°14'0 0.0
2014-Aug-20 22:23N 59°06' E 010°14'0 0.0
2014-Aug-20 21:29N 59°06' E 010°14'0 0.0
2014-Aug-20 20:24N 59°06' E 010°14'0 0.0
2014-Aug-20 19:25N 59°06' E 010°14'0 0.0
2014-Aug-20 18:20N 59°06' E 010°14'0 0.1
2014-Aug-20 17:29N 59°06' E 010°14'1 1.1
2014-Aug-20 16:33N 59°07' E 010°14'1110.7
2014-Aug-20 15:33N 59°01' E 010°30'1514.9
2014-Aug-20 14:33N 58°60' E 010°58'7 7.0
2014-Aug-20 13:33N 58°56' E 011°10'1312.9
2014-Aug-20 12:33N 59°01' E 010°48'1616.2
2014-Aug-20 11:33N 59°02' E 010°16'6 6.0
2014-Aug-20 10:33N 59°08' E 010°14'7 6.5
2014-Aug-20 09:33N 59°01' E 010°18'1615.7
2014-Aug-20 08:33N 59°01' E 010°49'1212.4
2014-Aug-20 07:34N 58°56' E 011°10'9 8.6
2014-Aug-20 06:33N 59°00' E 010°56'1616.2
2014-Aug-20 05:33N 59°01' E 010°24'9 8.8
2014-Aug-20 04:33N 59°08' E 010°14'1 1.4
2014-Aug-20 03:33N 59°06' E 010°14'0 0.0
2014-Aug-20 02:20N 59°06' E 010°14'0 0.0
2014-Aug-20 01:32N 59°06' E 010°14'0 0.0
2014-Aug-19 23:25N 59°06' E 010°14'0 0.0
2014-Aug-19 22:28N 59°06' E 010°14'0 0.0
2014-Aug-19 21:32N 59°06' E 010°14'0 0.0
2014-Aug-19 20:33N 59°06' E 010°14'0 0.0
2014-Aug-19 19:10N 59°06' E 010°14'0 0.0
2014-Aug-19 18:25N 59°06' E 010°14'0 0.0
2014-Aug-19 17:31N 59°06' E 010°14'1 0.9
2014-Aug-19 16:30N 59°07' E 010°14'1010.4
2014-Aug-19 15:33N 59°01' E 010°28'1515.3
2014-Aug-19 14:33N 58°60' E 010°58'7 6.3
2014-Aug-19 13:25N 58°56' E 011°09'1315.2
2014-Aug-19 12:33N 59°02' E 010°47'1615.5
2014-Aug-19 11:33N 59°02' E 010°16'6 6.1
2014-Aug-19 10:33N 59°08' E 010°14'7 6.7
2014-Aug-19 09:33N 59°01' E 010°19'1515.3
2014-Aug-19 08:34N 59°02' E 010°48'1312.3
2014-Aug-19 07:33N 58°56' E 011°10'9 9.2
2014-Aug-19 06:33N 59°00' E 010°55'1616.5
2014-Aug-19 05:33N 59°01' E 010°23'8 8.2
2014-Aug-19 04:33N 59°08' E 010°14'1 1.4
2014-Aug-19 03:33N 59°06' E 010°14'0 0.0
2014-Aug-19 02:33N 59°06' E 010°14'0 0.0
2014-Aug-19 01:25N 59°06' E 010°14'0 0.0
2014-Aug-19 00:32N 59°06' E 010°14'0 0.0
2014-Aug-18 23:29N 59°06' E 010°14'0 0.0
2014-Aug-18 22:24N 59°06' E 010°14'0 0.0
2014-Aug-18 21:28N 59°06' E 010°14'0 0.0
2014-Aug-18 18:30N 59°06' E 010°14'0 0.0
2014-Aug-18 17:33N 59°06' E 010°14'1 1.4
2014-Aug-18 16:33N 59°08' E 010°14'10 9.6
2014-Aug-18 15:33N 59°01' E 010°27'1515.4
2014-Aug-18 14:33N 59°00' E 010°57'8 8.1
2014-Aug-18 13:33N 58°56' E 011°10'1211.9
2014-Aug-18 12:33N 59°01' E 010°50'1716.5
2014-Aug-18 11:33N 59°01' E 010°17'6 6.5
2014-Aug-18 10:33N 59°08' E 010°14'7 6.7
2014-Aug-18 09:33N 59°01' E 010°19'1515.0
2014-Aug-18 08:34N 59°02' E 010°48'1312.6
2014-Aug-18 07:33N 58°56' E 011°10'8 8.3
2014-Aug-18 06:33N 59°00' E 010°56'1616.1
2014-Aug-18 05:33N 59°01' E 010°25'9 9.1
2014-Aug-18 04:33N 59°08' E 010°14'1 1.4
2014-Aug-18 03:33N 59°06' E 010°14'0 0.0
2014-Aug-18 02:33N 59°06' E 010°14'0 0.0
2014-Aug-18 01:33N 59°06' E 010°14'0 0.0
2014-Aug-18 00:25N 59°06' E 010°14'0 0.0
2014-Aug-17 18:29N 59°06' E 010°14'1 1.5
2014-Aug-17 17:32N 59°08' E 010°14'4 4.4
2014-Aug-17 16:34N 59°03' E 010°15'1413.9
2014-Aug-17 15:33N 59°01' E 010°42'1514.7
2014-Aug-17 14:32N 58°56' E 011°09'1 0.8
2014-Aug-17 13:33N 58°56' E 011°10'1212.2
2014-Aug-17 12:33N 59°01' E 010°49'1716.5
2014-Aug-17 11:33N 59°02' E 010°17'6 6.3
2014-Aug-17 10:33N 59°08' E 010°14'7 6.7
2014-Aug-17 09:33N 59°01' E 010°19'1615.5
2014-Aug-17 08:33N 59°02' E 010°49'1212.4
2014-Aug-17 07:34N 58°56' E 011°10'9 8.6
2014-Aug-17 06:33N 59°00' E 010°56'1616.4
2014-Aug-17 05:33N 59°01' E 010°24'9 8.6
2014-Aug-17 04:33N 59°08' E 010°14'1 1.4
2014-Aug-17 03:33N 59°06' E 010°14'0 0.0
2014-Aug-17 02:32N 59°06' E 010°14'0 0.0
2014-Aug-17 01:33N 59°06' E 010°14'0 0.0
2014-Aug-17 00:31N 59°06' E 010°14'0 0.0
2014-Aug-16 23:31N 59°06' E 010°14'0 0.0
2014-Aug-16 22:32N 59°06' E 010°14'0 0.0
2014-Aug-16 21:30N 59°06' E 010°14'0 0.0
2014-Aug-16 20:33N 59°06' E 010°14'0 0.0
2014-Aug-16 19:31N 59°06' E 010°14'0 0.0
2014-Aug-16 18:32N 59°06' E 010°14'1 1.3
2014-Aug-16 17:33N 59°07' E 010°14'3 3.2
2014-Aug-16 16:33N 59°04' E 010°15'1413.9
2014-Aug-16 15:33N 59°01' E 010°41'1515.1
2014-Aug-16 14:33N 58°56' E 011°09'1 0.7
2014-Aug-16 13:33N 58°56' E 011°10'1212.4
2014-Aug-16 12:33N 59°01' E 010°49'1616.4
2014-Aug-16 11:33N 59°01' E 010°17'6 6.3
2014-Aug-16 10:33N 59°08' E 010°14'5 4.9
2014-Aug-16 09:33N 59°03' E 010°15'1716.6
2014-Aug-16 08:33N 59°02' E 010°47'1313.1
2014-Aug-16 07:33N 58°56' E 011°10'9 9.5
2014-Aug-16 06:34N 59°01' E 010°54'1616.2
2014-Aug-16 05:33N 59°01' E 010°23'8 8.1
2014-Aug-16 04:33N 59°08' E 010°14'1 1.4
2014-Aug-16 03:33N 59°06' E 010°14'0 0.1
2014-Aug-16 02:33N 59°06' E 010°14'0 0.0
2014-Aug-16 01:33N 59°06' E 010°14'0 0.0
2014-Aug-16 00:33N 59°06' E 010°14'0 0.0
2014-Aug-15 23:33N 59°06' E 010°14'0 0.0
2014-Aug-15 22:32N 59°06' E 010°14'0 0.0
2014-Aug-15 21:33N 59°06' E 010°14'0 0.0
2014-Aug-15 20:33N 59°06' E 010°14'0 0.0
2014-Aug-15 19:32N 59°06' E 010°14'0 0.0
2014-Aug-15 18:33N 59°06' E 010°14'1 1.2
2014-Aug-15 17:33N 59°07' E 010°14'2 1.8
2014-Aug-15 16:33N 59°06' E 010°14'1414.4
2014-Aug-15 15:33N 59°01' E 010°41'1515.3
2014-Aug-15 14:33N 58°56' E 011°09'1 0.7
2014-Aug-15 13:33N 58°56' E 011°10'1413.9
2014-Aug-15 12:33N 59°02' E 010°45'1615.6
2014-Aug-15 11:33N 59°03' E 010°15'5 5.0
2014-Aug-15 10:33N 59°08' E 010°14'6 6.2
2014-Aug-15 09:33N 59°02' E 010°16'1717.2
2014-Aug-15 08:33N 59°01' E 010°50'1211.8
2014-Aug-15 07:33N 58°56' E 011°10'10 9.8
2014-Aug-15 06:33N 59°01' E 010°53'1616.5
2014-Aug-15 05:33N 59°01' E 010°22'8 7.8
2014-Aug-15 04:33N 59°08' E 010°14'1 1.4
2014-Aug-15 03:33N 59°06' E 010°14'0 0.0
2014-Aug-15 02:33N 59°06' E 010°14'0 0.0
2014-Aug-15 01:33N 59°06' E 010°14'0 0.0
2014-Aug-15 00:33N 59°06' E 010°14'0 0.0
2014-Aug-14 23:33N 59°06' E 010°14'0 0.0
2014-Aug-14 22:33N 59°06' E 010°14'0 0.0
2014-Aug-14 21:33N 59°06' E 010°14'0 0.0
2014-Aug-14 20:33N 59°06' E 010°14'0 0.0
2014-Aug-14 19:33N 59°06' E 010°14'0 0.0
2014-Aug-14 18:33N 59°06' E 010°14'0 0.1
2014-Aug-14 17:32N 59°06' E 010°14'1 0.5
2014-Aug-14 16:33N 59°06' E 010°14'1413.5
2014-Aug-14 15:33N 59°01' E 010°39'1615.9
2014-Aug-14 14:32N 58°56' E 011°09'1 0.7
2014-Aug-14 13:33N 58°56' E 011°10'1313.4
2014-Aug-14 12:33N 59°02' E 010°46'1615.9
2014-Aug-14 11:33N 59°02' E 010°15'6 5.5
2014-Aug-14 10:33N 59°08' E 010°14'6 6.2
2014-Aug-14 09:33N 59°02' E 010°17'1717.2
2014-Aug-14 08:33N 59°01' E 010°50'1211.5
2014-Aug-14 07:33N 58°56' E 011°10'1010.1
2014-Aug-14 06:33N 59°01' E 010°53'1615.7
2014-Aug-14 05:33N 59°01' E 010°23'8 8.4
2014-Aug-14 04:33N 59°08' E 010°14'1 1.4
2014-Aug-14 03:33N 59°06' E 010°14'0 0.0
2014-Aug-14 02:33N 59°06' E 010°14'0 0.0
2014-Aug-14 01:33N 59°06' E 010°14'0 0.0
2014-Aug-14 00:33N 59°06' E 010°14'0 0.0
2014-Aug-13 23:33N 59°06' E 010°14'0 0.0
2014-Aug-13 22:33N 59°06' E 010°14'0 0.0
2014-Aug-13 21:33N 59°06' E 010°14'0 0.0
2014-Aug-13 20:33N 59°06' E 010°14'0 0.0
2014-Aug-13 19:33N 59°06' E 010°14'0 0.0
2014-Aug-13 18:33N 59°06' E 010°14'1 1.1
2014-Aug-13 17:26N 59°07' E 010°14'1 1.5
2014-Aug-13 16:33N 59°06' E 010°14'1313.2
2014-Aug-13 15:33N 59°01' E 010°38'1615.8
2014-Aug-13 14:33N 58°56' E 011°07'2 1.2
2014-Aug-13 13:15N 58°57' E 011°04'1115.8
2014-Aug-13 12:33N 59°02' E 010°45'1515.4
2014-Aug-13 11:33N 59°02' E 010°15'5 5.4
2014-Aug-13 10:33N 59°08' E 010°14'6 5.7
2014-Aug-13 09:33N 59°02' E 010°16'1716.5
2014-Aug-13 08:33N 59°02' E 010°48'1313.0
2014-Aug-13 07:33N 58°56' E 011°10'9 8.6
2014-Aug-13 06:33N 59°00' E 010°56'1615.7
2014-Aug-13 05:34N 59°01' E 010°25'9 9.1
2014-Aug-13 04:33N 59°08' E 010°14'1 1.4
2014-Aug-13 03:33N 59°06' E 010°14'0 0.1
2014-Aug-13 02:33N 59°06' E 010°14'0 0.0
2014-Aug-13 01:30N 59°06' E 010°14'0 0.0
2014-Aug-13 00:33N 59°06' E 010°14'0 0.0
2014-Aug-12 23:33N 59°06' E 010°14'0 0.0
2014-Aug-12 22:33N 59°06' E 010°14'0 0.0
2014-Aug-12 21:33N 59°06' E 010°14'0 0.0
2014-Aug-12 20:33N 59°06' E 010°14'0 0.0
2014-Aug-12 19:33N 59°06' E 010°14'0 0.0
2014-Aug-12 18:33N 59°06' E 010°14'0 0.3
2014-Aug-12 17:33N 59°06' E 010°14'1 1.1
2014-Aug-12 16:33N 59°05' E 010°14'1313.3
2014-Aug-12 15:33N 59°01' E 010°39'1615.4
2014-Aug-12 14:30N 58°56' E 011°09'1 0.7
2014-Aug-12 13:32N 58°56' E 011°10'1312.8
2014-Aug-12 12:33N 59°02' E 010°48'1615.5
2014-Aug-12 11:33N 59°01' E 010°18'5 0.5
2014-Aug-12 00:33N 59°06' E 010°14'0 0.0
2014-Aug-11 23:33N 59°06' E 010°14'0 0.0
2014-Aug-11 22:33N 59°06' E 010°14'0 0.0
2014-Aug-11 21:33N 59°06' E 010°14'0 0.0
2014-Aug-11 20:33N 59°06' E 010°14'0 0.0
2014-Aug-11 19:33N 59°06' E 010°14'0 0.0
2014-Aug-11 18:33N 59°06' E 010°14'1 1.4
2014-Aug-11 17:33N 59°08' E 010°14'6 6.3
2014-Aug-11 16:33N 59°01' E 010°17'1312.8
2014-Aug-11 15:33N 59°01' E 010°42'1514.5
2014-Aug-11 14:31N 58°56' E 011°09'  

Dump ship's entire track history